createdAt,value
2017-04-20T04:04:32.070Z,0
2017-04-20T04:05:12.565Z,0
2017-04-20T04:05:52.998Z,0
2017-04-20T04:06:34.249Z,0
2017-04-20T04:07:14.717Z,0
2017-04-20T04:09:32.442Z,0
2017-04-20T04:10:12.896Z,0
2017-04-20T04:10:53.369Z,0
2017-04-20T04:11:33.798Z,0
2017-04-20T04:12:14.243Z,0
2017-04-20T04:12:54.688Z,0
2017-04-20T04:13:35.087Z,0
2017-04-20T04:14:17.036Z,0
2017-04-20T04:14:57.483Z,0
2017-04-20T04:15:37.940Z,0
2017-04-20T04:16:19.257Z,0
2017-04-20T04:16:59.716Z,0
2017-04-20T04:17:40.184Z,0
2017-04-20T04:18:20.639Z,0
2017-04-20T04:19:01.082Z,0
2017-04-20T04:19:41.521Z,0
2017-04-20T04:20:21.957Z,0
2017-04-20T04:21:02.470Z,0
2017-04-20T04:21:42.926Z,0
2017-04-20T04:22:23.360Z,5
2017-04-20T04:23:03.842Z,5
2017-04-20T04:23:44.298Z,5
2017-04-20T04:24:24.733Z,5
2017-04-20T04:25:05.188Z,5
2017-04-20T04:25:45.622Z,5
2017-04-20T04:26:26.090Z,5
2017-04-20T04:27:06.505Z,5
2017-04-20T04:27:46.931Z,5
2017-04-20T04:29:59.634Z,10
2017-04-20T04:30:40.121Z,10
2017-04-20T04:31:20.576Z,10
2017-04-20T04:32:01.033Z,10
2017-04-20T04:32:41.475Z,10
2017-04-20T04:33:21.979Z,10
2017-04-20T04:34:02.402Z,10
2017-04-20T04:34:42.858Z,10
2017-04-20T04:35:23.321Z,10
2017-04-20T04:36:03.728Z,15
2017-04-20T04:36:44.173Z,15
2017-04-20T04:37:24.639Z,15
2017-04-20T04:38:05.110Z,15
2017-04-20T04:38:45.571Z,15
2017-04-20T04:39:26.007Z,15
2017-04-20T04:40:06.456Z,15
2017-04-20T04:40:46.925Z,15
2017-04-20T04:41:27.350Z,20
2017-04-20T04:42:07.754Z,20
2017-04-20T04:42:48.177Z,20
2017-04-20T04:43:28.607Z,20
2017-04-20T04:44:09.029Z,20
2017-04-20T04:44:49.451Z,20
2017-04-20T04:45:29.900Z,20
2017-04-20T04:46:10.348Z,25
2017-04-20T04:46:51.572Z,25
2017-04-20T04:47:32.015Z,25
2017-04-20T04:48:12.453Z,25
2017-04-20T04:48:52.885Z,25
2017-04-20T04:49:33.295Z,25
2017-04-20T04:52:01.418Z,30
2017-04-20T04:52:41.894Z,30
2017-04-20T04:53:22.361Z,30
2017-04-20T04:54:02.789Z,30
2017-04-20T04:54:43.251Z,35
2017-04-20T04:55:23.709Z,35
2017-04-20T04:56:04.188Z,35
2017-04-20T04:56:44.649Z,35
2017-04-20T04:57:25.109Z,35
2017-04-20T04:58:05.510Z,40
2017-04-20T04:58:45.955Z,40
2017-04-20T04:59:26.387Z,40
2017-04-20T05:00:06.840Z,40
2017-04-20T05:00:47.254Z,40
2017-04-20T05:03:00.172Z,45
2017-04-20T05:03:40.630Z,45
2017-04-20T05:04:21.092Z,45
2017-04-20T05:05:01.551Z,45
2017-04-20T05:05:42.000Z,45
2017-04-20T05:06:22.491Z,50
2017-04-20T05:07:02.968Z,50
2017-04-20T05:07:43.431Z,50
2017-04-20T05:08:23.914Z,50
2017-04-20T05:09:04.380Z,50
2017-04-20T05:09:44.901Z,50
2017-04-20T05:10:25.409Z,55
2017-04-20T05:11:05.908Z,55
2017-04-20T05:13:18.820Z,55
2017-04-20T05:13:59.280Z,55
2017-04-20T05:14:39.755Z,60
2017-04-20T05:15:20.241Z,60
2017-04-20T05:16:00.725Z,60
2017-04-20T05:16:41.264Z,60
2017-04-20T05:17:21.756Z,60
2017-04-20T05:18:02.233Z,60
2017-04-20T05:20:40.556Z,65
2017-04-20T05:21:21.031Z,65
2017-04-20T05:22:01.543Z,70
2017-04-20T05:22:42.026Z,70
2017-04-20T05:23:22.492Z,70
2017-04-20T05:24:03.574Z,70
2017-04-20T05:24:44.058Z,70
2017-04-20T05:25:24.551Z,70
2017-04-20T05:26:05.012Z,75
2017-04-20T05:26:45.497Z,75
2017-04-20T05:27:25.966Z,75
2017-04-20T05:28:06.389Z,75
2017-04-20T05:28:46.844Z,75
2017-04-20T05:29:27.292Z,75
2017-04-20T05:30:07.758Z,85
2017-04-20T05:30:48.218Z,95
2017-04-20T05:31:28.678Z,105
2017-04-20T05:32:09.186Z,115
2017-04-20T05:32:49.646Z,120
2017-04-20T05:33:30.147Z,120
2017-04-20T05:34:10.597Z,120
2017-04-20T05:34:51.058Z,120
2017-04-20T05:35:31.515Z,120
2017-04-20T05:36:11.942Z,125
2017-04-20T05:36:52.389Z,125
2017-04-20T05:39:10.178Z,130
2017-04-20T05:39:50.664Z,130
2017-04-20T05:40:31.133Z,130
2017-04-20T05:41:11.614Z,135
2017-04-20T05:41:52.087Z,135
2017-04-20T05:42:32.537Z,135
2017-04-20T05:43:12.978Z,140
2017-04-20T05:43:53.408Z,140
2017-04-20T05:44:33.875Z,140
2017-04-20T05:45:14.332Z,145
2017-04-20T05:45:54.774Z,145
2017-04-20T05:46:35.224Z,145
2017-04-20T05:47:15.685Z,150
2017-04-20T05:47:56.110Z,150
2017-04-20T05:48:36.515Z,150
2017-04-20T05:49:16.964Z,155
2017-04-20T05:49:57.419Z,155
2017-04-20T05:50:37.881Z,155
2017-04-20T05:51:18.347Z,155
2017-04-20T05:51:58.811Z,155
2017-04-20T05:52:39.266Z,160
2017-04-20T05:53:19.695Z,160
2017-04-20T05:54:00.144Z,160
2017-04-20T05:54:40.574Z,160
2017-04-20T05:55:21.033Z,165
2017-04-20T05:56:01.563Z,165
2017-04-20T05:56:42.006Z,170
2017-04-20T05:57:22.477Z,170
2017-04-20T05:58:02.974Z,170
2017-04-20T05:58:43.434Z,175
2017-04-20T05:59:24.932Z,175
2017-04-20T06:00:05.389Z,175
2017-04-20T06:00:45.856Z,180
2017-04-20T06:01:26.296Z,180
2017-04-20T06:02:06.742Z,180
2017-04-20T06:02:47.272Z,185
2017-04-20T06:03:27.726Z,185
2017-04-20T06:04:08.207Z,190
2017-04-20T06:04:48.698Z,190
2017-04-20T06:05:29.178Z,190
2017-04-20T06:06:09.659Z,195
2017-04-20T06:06:50.156Z,195
2017-04-20T06:07:30.678Z,200
2017-04-20T06:08:11.142Z,195
2017-04-20T06:08:51.580Z,195
2017-04-20T06:09:32.077Z,200
2017-04-20T06:10:12.544Z,200
2017-04-20T06:10:53.038Z,200
2017-04-20T06:11:33.497Z,205
2017-04-20T06:12:13.943Z,205
2017-04-20T06:12:54.462Z,210
2017-04-20T06:13:34.899Z,215
2017-04-20T06:14:15.361Z,215
2017-04-20T06:14:55.789Z,215
2017-04-20T06:15:36.274Z,220
2017-04-20T06:16:16.727Z,220
2017-04-20T06:16:57.189Z,225
2017-04-20T06:17:37.629Z,225
2017-04-20T06:18:18.087Z,225
2017-04-20T06:18:58.568Z,225
2017-04-20T06:19:39.011Z,220
2017-04-20T06:22:06.955Z,240
2017-04-20T06:22:47.408Z,245
2017-04-20T06:23:28.517Z,245
2017-04-20T06:24:08.988Z,245
2017-04-20T06:24:49.540Z,250
2017-04-20T06:25:30.038Z,250
2017-04-20T06:26:10.492Z,255
2017-04-20T06:26:50.981Z,255
2017-04-20T06:27:31.473Z,255
2017-04-20T06:28:11.959Z,260
2017-04-20T06:28:52.439Z,260
2017-04-20T06:29:32.927Z,265
2017-04-20T06:30:13.374Z,270
2017-04-20T06:30:53.861Z,270
2017-04-20T06:31:34.313Z,275
2017-04-20T06:32:14.802Z,275
2017-04-20T06:34:47.900Z,290
2017-04-20T06:35:28.348Z,295
2017-04-20T06:36:08.820Z,300
2017-04-20T06:38:36.758Z,305
2017-04-20T06:39:17.261Z,310
2017-04-20T06:39:57.775Z,315
2017-04-20T06:40:38.238Z,320
2017-04-20T06:41:18.732Z,325
2017-04-20T06:41:59.953Z,335
2017-04-20T06:42:40.447Z,335
2017-04-20T06:43:20.944Z,335
2017-04-20T06:44:01.406Z,345
2017-04-20T06:44:41.889Z,345
2017-04-20T06:45:22.367Z,360
2017-04-20T06:46:02.909Z,360
2017-04-20T06:46:43.430Z,365
2017-04-20T06:47:23.890Z,370
2017-04-20T06:48:04.350Z,375
2017-04-20T06:52:40.225Z,395
2017-04-20T06:53:20.853Z,405
2017-04-20T06:54:01.303Z,415
2017-04-20T06:56:29.259Z,430
2017-04-20T06:57:09.772Z,440
2017-04-20T06:57:50.207Z,445
2017-04-20T06:58:30.687Z,455
2017-04-20T06:59:11.152Z,455
2017-04-20T06:59:51.626Z,460
2017-04-20T07:00:32.066Z,465
2017-04-20T07:01:12.535Z,465
2017-04-20T07:01:52.982Z,480
2017-04-20T07:04:11.051Z,515
2017-04-20T07:04:51.586Z,415
2017-04-20T07:05:32.029Z,520
2017-04-20T07:06:12.529Z,540
2017-04-20T07:06:53.005Z,555
2017-04-20T07:07:33.431Z,565
2017-04-20T07:08:13.917Z,565
2017-04-20T07:08:54.349Z,575
2017-04-20T07:09:34.769Z,575
2017-04-20T07:10:15.197Z,600
2017-04-20T07:10:55.623Z,615
2017-04-20T07:13:23.566Z,645
2017-04-20T07:14:04.042Z,650
2017-04-20T07:14:44.507Z,665
2017-04-20T07:15:24.963Z,685
2017-04-20T07:16:05.473Z,695
2017-04-20T07:16:45.980Z,715
2017-04-20T07:17:26.440Z,735
2017-04-20T07:18:06.889Z,765
2017-04-20T07:18:47.359Z,785
2017-04-20T07:19:27.850Z,810
2017-04-20T07:20:08.277Z,825
2017-04-20T07:20:48.760Z,850
2017-04-20T07:21:29.224Z,880
2017-04-20T07:22:09.680Z,905
2017-04-20T07:22:50.173Z,935
2017-04-20T07:23:30.602Z,960
2017-04-20T07:24:11.069Z,990
2017-04-20T07:24:51.529Z,1020
2017-04-20T07:25:31.994Z,1060
2017-04-20T07:26:12.509Z,1095
2017-04-20T07:26:53.017Z,1130
2017-04-20T07:27:33.559Z,1160
2017-04-20T07:28:14.223Z,1190
2017-04-20T07:28:54.720Z,1230
2017-04-20T07:29:35.245Z,1260
2017-04-20T07:30:15.707Z,1295
2017-04-20T07:30:56.120Z,1320
2017-04-20T07:31:36.576Z,1350
2017-04-20T07:32:17.672Z,1390
2017-04-20T07:36:34.616Z,1550
2017-04-20T07:37:15.124Z,1595
2017-04-20T07:39:48.765Z,1650
2017-04-20T07:40:30.116Z,1665
2017-04-20T07:41:10.563Z,1665
2017-04-20T07:41:51.065Z,1660
2017-04-20T07:42:31.512Z,1655
2017-04-20T07:43:11.973Z,1645
2017-04-20T07:43:53.102Z,1635
2017-04-20T07:44:33.578Z,1625
2017-04-20T07:45:14.123Z,1615
2017-04-20T07:45:54.601Z,1610
2017-04-20T07:46:35.122Z,1600
2017-04-20T07:47:15.607Z,1590
2017-04-20T07:47:56.136Z,1585
2017-04-20T07:50:34.282Z,1525
2017-04-20T07:51:14.842Z,1500
2017-04-20T07:51:55.307Z,1475
2017-04-20T07:52:35.839Z,1450
2017-04-20T07:53:16.342Z,1430
2017-04-20T07:53:56.860Z,1410
2017-04-20T07:54:37.322Z,1385
2017-04-20T07:55:17.799Z,1365
2017-04-20T07:55:58.331Z,1335
2017-04-20T07:56:38.802Z,1305
2017-04-20T07:57:19.304Z,1270
2017-04-20T07:57:59.838Z,1245
2017-04-20T07:58:40.371Z,1210
2017-04-20T07:59:20.909Z,1155
2017-04-20T08:00:01.496Z,1100
2017-04-20T08:00:42.055Z,1045
2017-04-20T08:01:22.550Z,1005
2017-04-20T08:02:03.779Z,970
2017-04-20T08:02:44.207Z,920
2017-04-20T08:03:25.449Z,850
2017-04-20T08:04:06.031Z,765
2017-04-20T08:04:46.495Z,685
2017-04-20T08:07:24.731Z,520
2017-04-20T08:08:05.270Z,515
2017-04-20T08:08:45.730Z,500
2017-04-20T08:09:26.159Z,495
2017-04-20T08:10:06.718Z,495
2017-04-20T08:10:48.253Z,490
2017-04-20T08:11:27.846Z,495
2017-04-20T08:12:08.301Z,490
2017-04-20T08:12:48.877Z,490
2017-04-20T08:15:27.940Z,1225
2017-04-20T08:16:12.685Z,1855
2017-04-20T08:16:54.295Z,2275
2017-04-20T08:17:34.831Z,2405
2017-04-20T08:20:08.195Z,2220
2017-04-20T08:20:48.671Z,2200
2017-04-20T08:21:29.144Z,2180
2017-04-20T08:22:09.602Z,2165
2017-04-20T08:22:51.122Z,2145
2017-04-20T08:23:31.412Z,2110
2017-04-20T08:24:11.788Z,2145
2017-04-20T08:24:52.505Z,2205
2017-04-20T08:25:32.917Z,2285
2017-04-20T08:26:13.430Z,2375
2017-04-20T08:26:54.274Z,2435
2017-04-20T08:27:34.699Z,2515
2017-04-20T08:28:15.158Z,2515
2017-04-20T08:28:55.660Z,2480
2017-04-20T08:33:02.225Z,2280
2017-04-20T08:33:42.690Z,2200
2017-04-20T08:34:23.241Z,2265
2017-04-20T08:35:03.803Z,2305
2017-04-20T08:35:44.167Z,2370
2017-04-20T08:36:24.624Z,2425
2017-04-20T08:37:05.087Z,2475
2017-04-20T08:37:45.529Z,2505
2017-04-20T08:38:27.676Z,2520
2017-04-20T08:40:45.582Z,2475
2017-04-20T08:41:26.019Z,2525
2017-04-20T08:42:06.605Z,2515
2017-04-20T08:42:47.124Z,2450
2017-04-20T08:43:27.600Z,2170
2017-04-20T08:44:08.120Z,1800
2017-04-20T08:44:48.622Z,1305
2017-04-20T08:45:29.253Z,1015
2017-04-20T08:46:09.693Z,880
2017-04-20T08:46:50.255Z,850
2017-04-20T08:47:30.735Z,815
2017-04-20T08:48:11.226Z,795
2017-04-20T08:50:39.627Z,830
2017-04-20T08:51:20.073Z,820
2017-04-20T08:52:00.520Z,810
2017-04-20T08:52:41.049Z,830
2017-04-20T08:53:21.564Z,855
2017-04-20T08:55:34.417Z,985
2017-04-20T08:56:14.898Z,1080
2017-04-20T08:56:55.426Z,1125
2017-04-20T08:57:35.896Z,1080
2017-04-20T08:58:16.361Z,1055
2017-04-20T08:58:56.830Z,1000
2017-04-20T08:59:37.339Z,990
2017-04-20T09:00:17.847Z,965
2017-04-20T09:00:58.303Z,900
2017-04-20T09:01:39.479Z,850
2017-04-20T09:02:19.928Z,820
2017-04-20T09:03:00.489Z,800
2017-04-20T09:03:40.946Z,795
2017-04-20T09:04:21.428Z,800
2017-04-20T09:05:01.904Z,595
2017-04-20T09:07:35.181Z,595
2017-04-20T09:08:15.700Z,590
2017-04-20T09:08:56.252Z,610
2017-04-20T09:11:29.320Z,540
2017-04-20T09:12:50.291Z,475
2017-04-20T09:13:30.767Z,470
2017-04-20T09:14:11.280Z,465
2017-04-20T09:14:51.799Z,490
2017-04-20T09:15:32.236Z,525
2017-04-20T09:16:12.813Z,620
2017-04-20T09:16:53.268Z,830
2017-04-20T09:17:33.786Z,925
2017-04-20T09:18:14.297Z,645
2017-04-20T09:18:54.793Z,840
2017-04-20T09:19:35.296Z,1165
2017-04-20T09:20:15.758Z,930
2017-04-20T09:20:56.252Z,635
2017-04-20T09:21:36.723Z,680
2017-04-20T09:22:17.202Z,755
2017-04-20T09:22:57.645Z,855
2017-04-20T09:23:38.122Z,705
2017-04-20T09:24:18.571Z,695
2017-04-20T09:24:59.055Z,875
2017-04-20T09:25:39.676Z,610
2017-04-20T09:26:20.030Z,565
2017-04-20T09:28:37.939Z,600
2017-04-20T09:29:21.481Z,620
2017-04-20T09:30:02.035Z,555
2017-04-20T09:30:42.561Z,595
2017-04-20T09:31:23.881Z,1470
2017-04-20T09:32:04.398Z,785
2017-04-20T09:32:45.004Z,560
2017-04-20T09:33:25.460Z,615
2017-04-20T09:34:06.086Z,585
2017-04-20T09:34:46.762Z,590
2017-04-20T09:36:59.726Z,2835
2017-04-20T09:37:40.143Z,3135
2017-04-20T09:38:20.620Z,1895
2017-04-20T09:39:01.074Z,815
2017-04-20T09:39:41.568Z,720
2017-04-20T09:40:22.191Z,1200
2017-04-20T09:41:02.664Z,1730
2017-04-20T09:41:43.178Z,2435
2017-04-20T09:42:23.690Z,975
2017-04-20T09:43:04.124Z,3225
2017-04-20T09:43:44.614Z,2840
2017-04-20T09:46:02.599Z,550
2017-04-20T09:46:43.100Z,545
2017-04-20T09:47:23.557Z,540
2017-04-20T09:48:04.075Z,540
2017-04-20T09:48:44.566Z,545
2017-04-20T09:49:25.072Z,525
2017-04-20T09:50:05.600Z,525
2017-04-20T09:50:46.095Z,535
2017-04-20T09:51:26.559Z,555
2017-04-20T09:52:07.012Z,555
2017-04-20T09:52:47.479Z,555
2017-04-20T09:53:28.006Z,580
2017-04-20T09:54:08.467Z,590
2017-04-20T09:54:48.998Z,580
2017-04-20T09:55:29.590Z,610
2017-04-20T09:57:42.606Z,500
2017-04-20T09:58:24.549Z,505
2017-04-20T09:59:05.010Z,515
2017-04-20T09:59:45.515Z,540
2017-04-20T10:00:25.990Z,585
2017-04-20T10:01:06.491Z,590
2017-04-20T10:01:46.938Z,565
2017-04-20T10:02:27.421Z,560
2017-04-20T10:03:07.950Z,730
2017-04-20T10:03:48.422Z,635
2017-04-20T10:04:28.873Z,1505
2017-04-20T10:05:09.436Z,810
2017-04-20T10:05:49.892Z,1725
2017-04-20T10:08:23.357Z,1395
2017-04-20T10:09:04.107Z,2670
2017-04-20T10:09:45.106Z,1765
2017-04-20T10:10:25.793Z,990
2017-04-20T10:11:06.543Z,825
2017-04-20T10:11:47.468Z,790
2017-04-20T10:14:23.839Z,540
2017-04-20T10:15:04.333Z,525
2017-04-20T10:15:44.819Z,500
2017-04-20T10:16:25.292Z,490
2017-04-20T10:17:05.752Z,485
2017-04-20T10:17:46.225Z,475
2017-04-20T10:18:26.718Z,480
2017-04-20T10:19:07.205Z,475
2017-04-20T10:19:47.741Z,485
2017-04-20T10:20:28.571Z,485
2017-04-20T10:21:09.240Z,480
2017-04-20T10:21:49.774Z,475
2017-04-20T10:22:30.241Z,480
2017-04-20T10:23:10.714Z,485
2017-04-20T10:23:51.115Z,490
2017-04-20T10:24:31.562Z,485
2017-04-20T10:25:12.017Z,485
2017-04-20T10:25:52.499Z,500
2017-04-20T10:26:32.941Z,515
2017-04-20T10:27:13.409Z,670
2017-04-20T10:27:53.852Z,1500
2017-04-20T10:28:34.369Z,2520
2017-04-20T10:29:14.780Z,2995
2017-04-20T10:29:55.232Z,3030
2017-04-20T10:30:35.688Z,3090
2017-04-20T10:31:16.162Z,3145
2017-04-20T10:31:56.603Z,3225
2017-04-20T10:32:37.859Z,3230
2017-04-20T10:34:50.622Z,510
2017-04-20T10:35:31.097Z,420
2017-04-20T10:36:11.589Z,385
2017-04-20T10:36:52.159Z,370
2017-04-20T10:37:32.640Z,355
2017-04-20T10:38:13.113Z,350
2017-04-20T10:38:53.631Z,355
2017-04-20T10:39:34.092Z,360
2017-04-20T10:40:14.746Z,375
2017-04-20T10:42:52.889Z,405
2017-04-20T10:43:33.443Z,415
2017-04-20T10:44:13.906Z,425
2017-04-20T10:44:54.402Z,440
2017-04-20T10:48:45.889Z,2650
2017-04-20T10:49:26.317Z,3395
2017-04-20T10:50:06.864Z,3550
2017-04-20T10:50:47.409Z,3580
2017-04-20T10:51:27.989Z,3590
2017-04-20T10:52:08.500Z,3580
2017-04-20T10:52:49.034Z,3625
2017-04-20T10:53:29.583Z,3690
2017-04-20T10:54:10.389Z,3655
2017-04-20T10:54:51.289Z,3685
2017-04-20T10:55:32.005Z,3660
2017-04-20T10:56:12.543Z,3550
2017-04-20T10:56:53.003Z,3565
2017-04-20T10:59:12.161Z,3485
2017-04-20T10:59:52.605Z,3550
2017-04-20T11:00:33.079Z,3555
2017-04-20T11:01:13.599Z,3520
2017-04-20T11:01:54.185Z,3515
2017-04-20T11:02:34.651Z,3375
2017-04-20T11:03:15.101Z,3215
2017-04-20T11:03:55.539Z,3230
2017-04-20T11:04:36.032Z,3245
2017-04-20T11:05:16.511Z,3425
2017-04-20T11:05:56.979Z,3460
2017-04-20T11:06:37.471Z,3415
2017-04-20T11:08:55.349Z,3550
2017-04-20T11:09:35.781Z,3545
2017-04-20T11:12:13.898Z,3505
2017-04-20T11:12:54.374Z,3425
2017-04-20T11:13:34.909Z,3430
2017-04-20T11:14:15.335Z,3390
2017-04-20T11:14:55.891Z,3285
2017-04-20T11:15:36.398Z,3225
2017-04-20T11:16:16.847Z,3310
2017-04-20T11:16:57.309Z,3500
2017-04-20T11:17:37.810Z,3485
2017-04-20T11:18:18.252Z,3445
2017-04-20T11:18:58.738Z,3470
2017-04-20T11:19:39.284Z,3440
2017-04-20T11:20:19.768Z,3475
2017-04-20T11:21:00.379Z,3500
2017-04-20T11:23:38.759Z,3395
2017-04-20T11:24:19.287Z,3435
2017-04-20T11:24:59.770Z,3540
2017-04-20T11:25:40.259Z,3575
2017-04-20T11:26:20.713Z,3600
2017-04-20T11:27:01.239Z,3475
2017-04-20T11:27:41.706Z,3505
2017-04-20T11:28:22.134Z,3385
2017-04-20T11:29:02.612Z,3545
2017-04-20T11:29:43.106Z,3635
2017-04-20T11:30:23.658Z,3635
2017-04-20T11:31:04.110Z,2890
2017-04-20T11:31:44.570Z,1330
2017-04-20T11:32:25.198Z,1915
2017-04-20T11:33:05.744Z,2540
2017-04-20T11:33:46.364Z,3200
2017-04-20T11:34:26.883Z,3470
2017-04-20T11:35:07.438Z,3520
2017-04-20T11:35:47.988Z,3550
2017-04-20T11:36:29.002Z,3610
2017-04-20T11:37:09.628Z,3445
2017-04-20T11:37:50.272Z,3425
2017-04-20T11:38:30.814Z,3440
2017-04-20T11:39:11.406Z,3455
2017-04-20T11:39:51.958Z,3475
2017-04-20T11:40:32.584Z,3425
2017-04-20T11:41:13.251Z,3440
2017-04-20T11:41:53.911Z,3295
2017-04-20T11:42:34.531Z,2370
2017-04-20T11:45:02.568Z,730
2017-04-20T11:45:43.118Z,710
2017-04-20T11:46:23.692Z,700
2017-04-20T11:47:04.273Z,695
2017-04-20T11:47:44.841Z,690
2017-04-20T11:48:25.437Z,685
2017-04-20T11:49:06.564Z,675
2017-04-20T11:49:47.108Z,675
2017-04-20T11:50:27.654Z,670
2017-04-20T11:51:08.496Z,670
2017-04-20T11:51:49.017Z,660
2017-04-20T11:54:01.994Z,655
2017-04-20T11:54:42.527Z,650
2017-04-20T11:55:23.061Z,650
2017-04-20T11:56:03.634Z,650
2017-04-20T12:00:24.364Z,645
2017-04-20T12:01:04.837Z,650
2017-04-20T12:01:45.413Z,650
2017-04-20T12:02:25.870Z,650
2017-04-20T12:03:06.393Z,650
2017-04-20T12:03:46.871Z,655
2017-04-20T12:04:27.525Z,655
2017-04-20T12:05:08.031Z,670
2017-04-20T12:05:48.568Z,665
2017-04-20T12:08:01.386Z,705
2017-04-20T12:08:41.903Z,730
2017-04-20T12:09:22.514Z,785
2017-04-20T12:10:03.773Z,970
2017-04-20T12:10:44.375Z,1600
2017-04-20T12:11:24.905Z,2415
2017-04-20T12:12:05.359Z,2940
2017-04-20T12:12:45.956Z,3290
2017-04-20T12:13:26.487Z,3455
2017-04-20T12:14:06.971Z,3515
2017-04-20T12:14:47.454Z,3475
2017-04-20T12:17:15.578Z,3435
2017-04-20T12:17:55.989Z,3440
2017-04-20T12:18:36.426Z,3420
2017-04-20T12:19:17.038Z,3485
2017-04-20T12:19:57.478Z,3560
2017-04-20T12:20:37.974Z,3540
2017-04-20T12:23:16.173Z,3485
2017-04-20T12:23:56.690Z,3500
2017-04-20T12:24:37.185Z,3505
2017-04-20T12:25:17.749Z,3470
2017-04-20T12:25:58.382Z,3450
2017-04-20T12:26:38.965Z,3440
2017-04-20T12:27:19.452Z,3450
2017-04-20T12:27:59.993Z,3445
2017-04-20T12:30:12.807Z,3580
2017-04-20T12:30:53.516Z,3625
2017-04-20T12:31:34.003Z,3565
2017-04-20T12:32:14.550Z,3495
2017-04-20T12:34:42.775Z,3525
2017-04-20T12:35:23.464Z,3495
2017-04-20T12:36:03.976Z,3475
2017-04-20T12:36:44.595Z,3505
2017-04-20T12:37:25.192Z,3535
2017-04-20T12:38:05.699Z,3490
2017-04-20T12:38:46.209Z,3435
2017-04-20T12:39:26.661Z,3355
2017-04-20T12:40:07.298Z,3380
2017-04-20T12:40:47.834Z,3410
2017-04-20T12:41:28.293Z,3365
2017-04-20T12:42:08.795Z,3350
2017-04-20T12:42:49.197Z,3260
2017-04-20T12:46:39.570Z,3110
2017-04-20T12:47:20.022Z,3160
2017-04-20T12:48:00.500Z,3165
2017-04-20T12:48:41.050Z,3220
2017-04-20T12:49:21.459Z,3225
2017-04-20T12:50:02.851Z,3180
2017-04-20T12:50:43.298Z,3110
2017-04-20T12:53:11.462Z,3200
2017-04-20T12:53:52.048Z,3225
2017-04-20T12:54:32.533Z,3215
2017-04-20T12:55:13.087Z,3210
2017-04-20T12:55:53.607Z,3135
2017-04-20T12:56:34.111Z,3120
2017-04-20T12:57:14.768Z,3140
2017-04-20T12:59:42.791Z,2935
2017-04-20T13:00:23.277Z,2930
2017-04-20T13:01:03.759Z,3035
2017-04-20T13:01:44.312Z,3085
2017-04-20T13:02:24.884Z,3245
2017-04-20T13:03:20.166Z,3300
2017-04-20T13:05:58.365Z,3475
2017-04-20T13:06:39.049Z,3505
2017-04-20T13:07:19.416Z,3465
2017-04-20T13:07:59.891Z,3320
2017-04-20T13:08:40.392Z,3205
2017-04-20T13:09:20.924Z,3260
2017-04-20T13:10:01.677Z,3310
2017-04-20T13:12:19.650Z,3320
2017-04-20T13:13:00.118Z,3295
2017-04-20T13:13:40.622Z,3245
2017-04-20T13:14:21.146Z,3190
2017-04-20T13:16:39.232Z,3075
2017-04-20T13:17:19.733Z,3035
2017-04-20T13:18:00.457Z,2970
2017-04-20T13:18:41.036Z,2980
2017-04-20T13:20:53.836Z,2990
2017-04-20T13:21:34.423Z,3015
2017-04-20T13:22:14.877Z,3065
2017-04-20T13:22:55.377Z,3085
2017-04-20T13:23:35.841Z,3110
2017-04-20T13:24:16.355Z,3130
2017-04-20T13:24:56.835Z,3085
2017-04-20T13:25:37.375Z,2965
2017-04-20T13:26:18.598Z,2780
2017-04-20T13:26:59.081Z,2625
2017-04-20T13:29:37.227Z,1910
2017-04-20T13:30:17.679Z,1595
2017-04-20T13:30:58.230Z,1390
2017-04-20T13:31:38.733Z,1210
2017-04-20T13:32:19.221Z,1070
2017-04-20T13:32:59.659Z,1025
2017-04-20T13:33:40.153Z,975
2017-04-20T13:34:20.641Z,940
2017-04-20T13:35:01.095Z,915
2017-04-20T13:35:41.685Z,890
2017-04-20T13:36:22.166Z,865
2017-04-20T13:37:02.630Z,855
2017-04-20T13:37:43.128Z,855
2017-04-20T13:38:23.598Z,860
2017-04-20T13:39:04.329Z,860
2017-04-20T13:39:45.620Z,855
2017-04-20T13:40:27.376Z,850
2017-04-20T13:41:07.790Z,845
2017-04-20T13:41:48.592Z,860
2017-04-20T13:42:29.049Z,865
2017-04-20T13:43:09.512Z,865
2017-04-20T13:43:50.071Z,870
2017-04-20T13:44:30.534Z,880
2017-04-20T13:45:10.998Z,900
2017-04-20T13:45:51.539Z,900
2017-04-20T13:46:31.962Z,900
2017-04-20T13:47:12.664Z,910
2017-04-20T13:47:53.175Z,915
2017-04-20T13:48:33.632Z,910
2017-04-20T13:49:14.101Z,900
2017-04-20T13:49:54.659Z,890
2017-04-20T13:50:35.286Z,885
2017-04-20T13:51:15.739Z,900
2017-04-20T13:51:56.271Z,915
2017-04-20T13:52:36.748Z,915
2017-04-20T13:53:17.296Z,885
2017-04-20T13:53:57.822Z,870
2017-04-20T13:54:38.361Z,870
2017-04-20T13:55:18.853Z,875
2017-04-20T13:55:59.395Z,890
2017-04-20T13:56:39.857Z,915
2017-04-20T13:57:20.450Z,925
2017-04-20T13:58:02.749Z,910
2017-04-20T13:58:43.539Z,875
2017-04-20T13:59:25.329Z,900
2017-04-20T14:00:05.786Z,985
2017-04-20T14:00:46.294Z,1235
2017-04-20T14:01:27.374Z,1710
2017-04-20T14:03:45.487Z,2870
2017-04-20T14:04:26.086Z,2875
2017-04-20T14:05:06.653Z,2805
2017-04-20T14:05:47.367Z,2825
2017-04-20T14:06:28.025Z,2775
2017-04-20T14:07:08.649Z,2680
2017-04-20T14:07:49.551Z,2655
2017-04-20T14:08:30.125Z,2685
2017-04-20T14:09:10.927Z,2750
2017-04-20T14:09:51.555Z,2745
2017-04-20T14:10:32.190Z,2690
2017-04-20T14:11:12.780Z,2580
2017-04-20T14:11:53.562Z,2540
2017-04-20T14:12:34.332Z,2450
2017-04-20T14:13:14.962Z,2440
2017-04-20T14:13:55.667Z,2320
2017-04-20T14:14:36.364Z,2280
2017-04-20T14:15:16.988Z,2200
2017-04-20T14:15:57.779Z,2160
2017-04-20T14:16:38.448Z,2170
2017-04-20T14:17:19.198Z,2190
2017-04-20T14:17:59.796Z,2235
2017-04-20T14:18:40.545Z,2370
2017-04-20T14:19:21.270Z,2495
2017-04-20T14:20:01.915Z,2575
2017-04-20T14:20:42.542Z,2535
2017-04-20T14:21:24.094Z,2455
2017-04-20T14:22:04.722Z,2410
2017-04-20T14:22:45.394Z,2300
2017-04-20T14:23:26.089Z,2435
2017-04-20T14:24:06.701Z,2545
2017-04-20T14:24:47.233Z,2500
2017-04-20T14:25:27.849Z,2400
2017-04-20T14:26:08.412Z,2295
2017-04-20T14:26:48.967Z,2375
2017-04-20T14:27:29.655Z,2465
2017-04-20T14:28:10.259Z,2630
2017-04-20T14:28:50.875Z,2850
2017-04-20T14:29:31.575Z,3495
2017-04-20T14:30:12.155Z,3720
2017-04-20T14:30:52.715Z,3290
2017-04-20T14:31:33.431Z,2235
2017-04-20T14:32:14.000Z,1460
2017-04-20T14:32:54.605Z,1335
2017-04-20T14:33:35.179Z,1275
2017-04-20T14:34:15.735Z,1285
2017-04-20T14:34:56.257Z,1290
2017-04-20T14:35:36.949Z,1290
2017-04-20T14:36:17.520Z,1295
2017-04-20T14:37:01.713Z,1315
2017-04-20T14:37:42.310Z,1335
2017-04-20T14:38:22.830Z,1345
2017-04-20T14:39:03.518Z,1335
2017-04-20T14:39:44.324Z,1400
2017-04-20T14:40:24.708Z,1445
2017-04-20T14:41:05.337Z,1470
2017-04-20T14:41:46.616Z,1485
2017-04-20T14:42:27.173Z,1460
2017-04-20T14:43:07.625Z,1500
2017-04-20T14:43:48.096Z,1560
2017-04-20T14:44:28.605Z,1545
2017-04-20T14:45:09.253Z,1550
2017-04-20T14:45:49.663Z,1585
2017-04-20T14:48:18.684Z,1675
2017-04-20T14:48:59.126Z,1680
2017-04-20T14:49:39.590Z,1640
2017-04-20T14:50:20.064Z,1600
2017-04-20T14:51:00.534Z,1595
2017-04-20T14:51:40.992Z,1685
2017-04-20T14:52:21.473Z,1670
2017-04-20T14:53:02.123Z,1615
2017-04-20T14:53:42.620Z,1605
2017-04-20T14:54:23.077Z,1620
2017-04-20T14:55:03.551Z,1630
2017-04-20T14:55:44.035Z,1570
2017-04-20T14:56:24.501Z,1540
2017-04-20T14:57:05.028Z,1485
2017-04-20T14:57:45.526Z,1565
2017-04-20T15:00:13.477Z,1505
2017-04-20T15:00:53.922Z,1445
2017-04-20T15:01:34.455Z,1415
2017-04-20T15:02:14.966Z,1360
2017-04-20T15:02:55.420Z,1315
2017-04-20T15:03:35.954Z,1150
2017-04-20T15:04:16.419Z,1155
2017-04-20T15:04:56.887Z,1110
2017-04-20T15:05:37.366Z,1105
2017-04-20T15:06:17.825Z,1135
2017-04-20T15:06:58.333Z,950
2017-04-20T15:07:38.830Z,915
2017-04-20T15:08:19.305Z,775
2017-04-20T15:08:59.780Z,850
2017-04-20T15:09:40.250Z,850
2017-04-20T15:10:20.739Z,850